createdAt,value
2024-05-09T00:01:31.833Z,1.80
2024-05-09T00:04:35.006Z,1.97
2024-05-09T00:07:38.502Z,2.00
2024-05-09T00:10:41.749Z,1.77
2024-05-09T00:13:45.294Z,2.03
2024-05-09T00:16:50.148Z,1.92
2024-05-09T00:19:53.757Z,1.67
2024-05-09T00:22:57.187Z,2.00
2024-05-09T00:26:00.244Z,2.30
2024-05-09T00:29:03.726Z,1.73
2024-05-09T00:32:08.281Z,2.13
2024-05-09T00:35:11.886Z,1.67
2024-05-09T00:38:15.351Z,1.70
2024-05-09T00:41:19.909Z,2.30
2024-05-09T00:44:24.648Z,2.15
2024-05-09T00:47:28.705Z,2.13
2024-05-09T00:50:38.093Z,1.73
2024-05-09T00:53:42.378Z,1.75
2024-05-09T00:56:46.445Z,1.92
2024-05-09T00:59:51.739Z,2.10
2024-05-09T01:02:55.351Z,2.20
2024-05-09T01:05:59.994Z,1.43
2024-05-09T01:09:04.513Z,2.05
2024-05-09T01:12:08.107Z,2.20
2024-05-09T01:15:12.104Z,2.17
2024-05-09T01:18:16.518Z,1.97
2024-05-09T01:21:19.732Z,2.00
2024-05-09T01:24:23.254Z,1.92
2024-05-09T01:27:26.761Z,2.08
2024-05-09T01:30:35.258Z,2.08
2024-05-09T01:33:40.858Z,2.03
2024-05-09T01:36:43.893Z,2.17
2024-05-09T01:39:47.883Z,2.10
2024-05-09T01:42:50.759Z,2.40
2024-05-09T01:45:54.292Z,1.88
2024-05-09T01:48:57.681Z,2.07
2024-05-09T01:52:02.697Z,2.30
2024-05-09T01:55:07.176Z,2.50
2024-05-09T01:58:10.228Z,2.22
2024-05-09T02:01:13.790Z,2.22
2024-05-09T02:04:17.421Z,2.55
2024-05-09T02:07:20.451Z,2.50
2024-05-09T02:10:30.184Z,2.30
2024-05-09T02:13:36.210Z,1.88
2024-05-09T02:16:39.215Z,2.25
2024-05-09T02:19:43.608Z,2.43
2024-05-09T02:22:46.630Z,2.37
2024-05-09T02:25:50.520Z,2.15
2024-05-09T02:28:54.017Z,2.75
2024-05-09T02:31:57.682Z,2.30
2024-05-09T02:35:00.746Z,2.40
2024-05-09T02:38:05.530Z,2.60
2024-05-09T02:41:09.705Z,2.92
2024-05-09T02:44:14.183Z,2.78
2024-05-09T02:47:17.805Z,2.83
2024-05-09T02:50:29.693Z,2.40
2024-05-09T02:53:40.288Z,1.87
2024-05-09T02:56:43.870Z,2.20
2024-05-09T02:59:47.781Z,1.98
2024-05-09T03:02:50.872Z,2.30
2024-05-09T03:05:54.414Z,2.13
2024-05-09T03:08:57.310Z,2.00
2024-05-09T03:12:01.236Z,2.15
2024-05-09T03:15:05.251Z,2.20
2024-05-09T03:18:09.292Z,2.80
2024-05-09T03:21:13.228Z,3.13
2024-05-09T03:24:18.934Z,2.47
2024-05-09T03:27:24.852Z,2.40
2024-05-09T03:30:36.361Z,2.13
2024-05-09T03:33:44.444Z,2.00
2024-05-09T03:36:48.025Z,2.17
2024-05-09T03:39:50.948Z,2.10
2024-05-09T03:42:54.379Z,2.13
2024-05-09T03:45:58.119Z,1.92
2024-05-09T03:49:02.212Z,2.42
2024-05-09T03:52:06.286Z,2.20
2024-05-09T03:55:12.301Z,2.37
2024-05-09T03:58:15.981Z,1.98
2024-05-09T04:01:20.549Z,2.08
2024-05-09T04:04:25.035Z,2.55
2024-05-09T04:07:28.070Z,2.40
2024-05-09T04:10:34.115Z,2.43
2024-05-09T04:13:38.603Z,1.77
2024-05-09T04:16:43.084Z,2.50
2024-05-09T04:19:47.028Z,2.28
2024-05-09T04:22:51.539Z,2.20
2024-05-09T04:25:55.164Z,2.33
2024-05-09T04:28:59.751Z,2.08
2024-05-09T04:32:07.500Z,2.17
2024-05-09T04:35:11.012Z,2.20
2024-05-09T04:38:15.385Z,2.10
2024-05-09T04:41:20.309Z,2.30
2024-05-09T04:44:24.929Z,2.20
2024-05-09T04:47:29.507Z,2.20
2024-05-09T04:50:37.880Z,2.40
2024-05-09T04:53:43.902Z,2.23
2024-05-09T04:56:47.806Z,2.10
2024-05-09T04:59:51.487Z,2.28
2024-05-09T05:02:55.181Z,2.25
2024-05-09T05:05:59.512Z,2.60
2024-05-09T05:09:03.567Z,2.00
2024-05-09T05:12:27.633Z,2.10
2024-05-09T05:15:31.265Z,2.55
2024-05-09T05:18:34.704Z,2.28
2024-05-09T05:21:38.179Z,2.05
2024-05-09T05:24:41.654Z,2.67
2024-05-09T05:27:45.112Z,2.13
2024-05-09T05:30:49.879Z,2.45
2024-05-09T05:33:54.617Z,2.03
2024-05-09T05:36:59.084Z,2.00
2024-05-09T05:40:11.876Z,2.40
2024-05-09T05:43:24.695Z,2.73
2024-05-09T05:46:29.270Z,2.30
2024-05-09T05:49:34.790Z,1.85
2024-05-09T05:52:38.279Z,2.28
2024-05-09T05:55:41.916Z,2.47
2024-05-09T05:58:49.455Z,2.13
2024-05-09T06:01:52.446Z,2.33
2024-05-09T06:04:55.647Z,2.40
2024-05-09T06:07:59.335Z,1.95
2024-05-09T06:11:03.329Z,2.30
2024-05-09T06:14:07.163Z,2.00
2024-05-09T06:17:10.794Z,2.60
2024-05-09T06:20:20.577Z,2.40
2024-05-09T06:23:29.882Z,1.90
2024-05-09T06:26:33.058Z,2.65
2024-05-09T06:29:38.615Z,1.73
2024-05-09T06:32:45.179Z,2.08
2024-05-09T06:35:49.749Z,2.25
2024-05-09T06:38:53.200Z,2.70
2024-05-09T06:41:56.835Z,2.35
2024-05-09T06:45:00.291Z,2.53
2024-05-09T06:48:04.127Z,1.80
2024-05-09T06:51:07.974Z,2.33
2024-05-09T06:54:11.804Z,2.05
2024-05-09T06:57:24.370Z,2.00
2024-05-09T07:00:37.370Z,2.40
2024-05-09T07:03:43.342Z,2.35
2024-05-09T07:06:47.313Z,1.98
2024-05-09T07:09:51.216Z,2.05
2024-05-09T07:12:56.715Z,2.45
2024-05-09T07:16:00.689Z,2.10
2024-05-09T07:19:04.495Z,2.33
2024-05-09T07:22:08.194Z,2.33
2024-05-09T07:25:11.675Z,2.33
2024-05-09T07:28:19.126Z,2.20
2024-05-09T07:31:23.805Z,2.07
2024-05-09T07:34:27.406Z,2.00
2024-05-09T07:37:30.333Z,2.08
2024-05-09T07:40:36.567Z,2.63
2024-05-09T07:43:41.184Z,2.25
2024-05-09T07:47:48.301Z,2.07
2024-05-09T07:53:39.081Z,2.47
2024-05-09T07:56:47.597Z,2.30
2024-05-09T07:59:51.246Z,2.20
2024-05-09T08:02:55.121Z,1.87
2024-05-09T08:05:59.088Z,2.05
2024-05-09T08:09:07.698Z,1.88
2024-05-09T08:12:14.338Z,1.75
2024-05-09T08:15:18.338Z,2.10
2024-05-09T08:18:21.466Z,1.70
2024-05-09T08:21:25.134Z,2.15
2024-05-09T08:24:28.703Z,2.10
2024-05-09T08:27:32.174Z,2.15
2024-05-09T08:30:37.421Z,2.40
2024-05-09T08:33:51.291Z,1.70
2024-05-09T08:37:03.716Z,1.75
2024-05-09T08:40:23.607Z,2.80
2024-05-09T08:43:34.178Z,2.13
2024-05-09T08:46:37.910Z,2.10
2024-05-09T08:49:42.555Z,1.73
2024-05-09T08:52:47.605Z,1.30
2024-05-09T08:55:51.848Z,2.17
2024-05-09T08:59:01.564Z,2.22
2024-05-09T09:02:06.721Z,1.75
2024-05-09T09:05:16.429Z,1.77
2024-05-09T09:08:20.533Z,1.90
2024-05-09T09:11:23.677Z,2.10
2024-05-09T09:14:27.276Z,1.83
2024-05-09T09:17:30.366Z,1.67
2024-05-09T09:20:36.343Z,1.97
2024-05-09T09:23:41.939Z,2.35
2024-05-09T09:27:17.694Z,2.65
2024-05-09T09:30:46.301Z,2.10
2024-05-09T09:34:38.129Z,1.60
2024-05-09T09:44:00.645Z,1.52
2024-05-09T09:47:40.073Z,1.20
2024-05-09T09:51:11.108Z,1.88
2024-05-09T09:55:15.999Z,1.60
2024-05-09T10:04:18.896Z,1.38
2024-05-09T10:07:22.821Z,1.58
2024-05-09T10:10:31.748Z,1.70
2024-05-09T10:13:36.260Z,0.95
2024-05-09T10:17:06.907Z,1.07
2024-05-09T10:21:31.946Z,1.10
2024-05-09T10:25:38.003Z,1.33
2024-05-09T10:30:01.007Z,1.20
2024-05-09T10:33:11.254Z,1.10
2024-05-09T10:36:19.764Z,1.00
2024-05-09T10:39:25.403Z,1.65
2024-05-09T10:42:29.575Z,1.27
2024-05-09T10:45:35.920Z,1.35
2024-05-09T10:48:43.885Z,1.40
2024-05-09T10:51:48.993Z,1.20
2024-05-09T10:54:54.190Z,1.20
2024-05-09T10:57:57.671Z,1.30
2024-05-09T11:01:05.436Z,1.20
2024-05-09T11:04:11.182Z,1.40
2024-05-09T11:07:16.686Z,1.40
2024-05-09T11:10:27.395Z,1.20
2024-05-09T11:13:40.402Z,1.35
2024-05-09T11:16:43.908Z,1.83
2024-05-09T11:19:47.507Z,1.20
2024-05-09T11:22:51.531Z,1.67
2024-05-09T11:25:56.938Z,1.60
2024-05-09T11:29:00.484Z,1.40
2024-05-09T11:32:07.233Z,1.55
2024-05-09T11:35:10.836Z,1.30
2024-05-09T11:38:14.403Z,1.57
2024-05-09T11:41:18.712Z,1.52
2024-05-09T11:44:22.316Z,1.48
2024-05-09T11:47:26.589Z,1.52
2024-05-09T11:50:35.089Z,1.33
2024-05-09T11:53:39.514Z,1.30
2024-05-09T11:56:43.994Z,1.48
2024-05-09T11:59:47.492Z,1.40
2024-05-09T12:02:52.738Z,1.45
2024-05-09T12:05:56.002Z,1.48
2024-05-09T12:08:59.031Z,1.60
2024-05-09T12:12:02.103Z,1.13
2024-05-09T12:15:06.978Z,1.10
2024-05-09T12:18:10.660Z,1.25
2024-05-09T12:21:17.118Z,1.20
2024-05-09T12:24:21.839Z,1.23
2024-05-09T12:27:27.500Z,1.25
2024-05-09T12:30:36.798Z,1.10
2024-05-09T12:33:49.346Z,1.05
2024-05-09T12:36:53.105Z,1.00
2024-05-09T12:39:56.402Z,1.20
2024-05-09T12:42:59.992Z,1.42
2024-05-09T12:46:03.846Z,1.38
2024-05-09T12:49:07.878Z,1.13
2024-05-09T12:52:11.701Z,1.52
2024-05-09T12:55:15.496Z,1.10
2024-05-09T12:58:19.224Z,1.58
2024-05-09T13:01:23.119Z,1.30
2024-05-09T13:04:26.969Z,1.15
2024-05-09T13:07:30.643Z,1.58
2024-05-09T13:10:35.040Z,1.60
2024-05-09T13:13:38.671Z,1.40
2024-05-09T13:16:41.712Z,1.20
2024-05-09T13:19:44.644Z,1.55
2024-05-09T13:22:48.778Z,1.25
2024-05-09T13:25:53.349Z,1.40
2024-05-09T13:28:56.840Z,1.48
2024-05-09T13:32:00.310Z,1.35
2024-05-09T13:35:03.930Z,1.55
2024-05-09T13:38:07.607Z,1.55
2024-05-09T13:41:11.749Z,1.50
2024-05-09T13:44:15.221Z,1.30
2024-05-09T13:47:19.047Z,1.40
2024-05-09T13:50:31.127Z,1.52
2024-05-09T13:53:38.497Z,1.35
2024-05-09T13:56:42.050Z,1.63
2024-05-09T13:59:46.605Z,1.50
2024-05-09T14:02:49.580Z,1.55
2024-05-09T14:05:54.438Z,1.30
2024-05-09T14:08:57.512Z,1.55
2024-05-09T14:12:00.430Z,1.63
2024-05-09T14:15:04.056Z,1.30
2024-05-09T14:18:11.498Z,1.48
2024-05-09T14:21:17.241Z,1.30
2024-05-09T14:24:20.728Z,1.00
2024-05-09T14:27:23.641Z,1.17
2024-05-09T14:30:34.875Z,1.33
2024-05-09T14:33:40.812Z,1.40
2024-05-09T14:36:44.492Z,1.52
2024-05-09T14:39:48.515Z,1.40
2024-05-09T14:42:51.511Z,0.90
2024-05-09T14:45:56.007Z,1.70
2024-05-09T14:49:00.261Z,1.52
2024-05-09T14:52:04.286Z,1.75
2024-05-09T14:55:10.216Z,1.15
2024-05-09T14:58:15.654Z,1.43
2024-05-09T15:01:20.612Z,1.85
2024-05-09T15:04:24.505Z,1.42
2024-05-09T15:07:28.150Z,1.33
2024-05-09T15:10:35.445Z,1.92
2024-05-09T15:13:40.508Z,2.00
2024-05-09T15:16:43.495Z,1.70
2024-05-09T15:19:47.373Z,1.42
2024-05-09T15:22:51.083Z,1.50
2024-05-09T15:25:54.536Z,1.50
2024-05-09T15:28:57.994Z,1.70
2024-05-09T15:32:01.622Z,1.40
2024-05-09T15:35:05.667Z,1.35
2024-05-09T15:38:10.383Z,1.30
2024-05-09T15:41:13.832Z,1.70
2024-05-09T15:44:17.301Z,1.40
2024-05-09T15:47:20.827Z,1.30
2024-05-09T15:50:35.190Z,1.33
2024-05-09T15:53:42.151Z,1.80
2024-05-09T15:56:49.005Z,1.38
2024-05-09T15:59:52.532Z,1.47
2024-05-09T16:02:56.001Z,1.25
2024-05-09T16:06:00.837Z,1.63
2024-05-09T16:09:06.479Z,1.50
2024-05-09T16:12:09.818Z,1.67
2024-05-09T16:15:16.447Z,1.50
2024-05-09T16:18:22.719Z,1.65
2024-05-09T16:21:26.214Z,1.50
2024-05-09T16:24:29.851Z,1.95
2024-05-09T16:27:32.947Z,1.30
2024-05-09T16:30:37.139Z,1.43
2024-05-09T16:33:40.983Z,1.55
2024-05-09T16:36:44.752Z,1.50
2024-05-09T16:39:48.376Z,1.40
2024-05-09T16:42:52.051Z,1.80
2024-05-09T16:45:55.086Z,1.40
2024-05-09T16:48:59.122Z,1.60
2024-05-09T16:52:02.660Z,1.30
2024-05-09T16:55:06.276Z,1.60
2024-05-09T16:58:12.262Z,2.53
2024-05-09T17:01:15.672Z,2.90
2024-05-09T17:04:18.826Z,1.85
2024-05-09T17:07:23.485Z,1.52
2024-05-09T17:10:32.326Z,1.50
2024-05-09T17:13:39.499Z,1.33
2024-05-09T17:16:43.024Z,1.87
2024-05-09T17:19:47.563Z,1.40
2024-05-09T17:22:50.590Z,1.23
2024-05-09T17:25:53.498Z,1.45
2024-05-09T17:28:57.043Z,1.58
2024-05-09T17:32:01.008Z,1.60
2024-05-09T17:35:07.802Z,1.55
2024-05-09T17:38:10.918Z,1.30
2024-05-09T17:41:15.426Z,1.25
2024-05-09T17:44:21.528Z,1.70
2024-05-09T17:47:25.145Z,1.30
2024-05-09T17:50:35.063Z,1.30
2024-05-09T17:53:40.446Z,1.35
2024-05-09T17:56:44.003Z,1.27
2024-05-09T17:59:52.065Z,1.42
2024-05-09T18:02:55.668Z,1.33
2024-05-09T18:05:59.321Z,1.77
2024-05-09T18:09:02.868Z,1.20
2024-05-09T18:12:07.909Z,1.67
2024-05-09T18:15:11.339Z,1.55
2024-05-09T18:18:14.518Z,1.10
2024-05-09T18:21:18.278Z,1.30
2024-05-09T18:24:22.818Z,1.25
2024-05-09T18:27:25.987Z,1.10
2024-05-09T18:30:34.651Z,1.60
2024-05-09T18:33:39.811Z,1.10
2024-05-09T18:36:43.657Z,1.45
2024-05-09T18:39:47.190Z,1.77
2024-05-09T18:42:51.004Z,1.80
2024-05-09T18:45:54.501Z,1.70
2024-05-09T18:49:00.340Z,1.23
2024-05-09T18:52:03.448Z,1.58
2024-05-09T18:55:06.572Z,1.98
2024-05-09T18:58:10.111Z,1.90
2024-05-09T19:01:13.334Z,1.92
2024-05-09T19:04:19.253Z,1.67
2024-05-09T19:07:23.260Z,1.70
2024-05-09T19:10:32.262Z,1.63
2024-05-09T19:13:38.473Z,1.35
2024-05-09T19:16:42.224Z,1.10
2024-05-09T19:19:45.897Z,1.60
2024-05-09T19:22:48.931Z,1.70
2024-05-09T19:25:52.467Z,1.15
2024-05-09T19:28:55.498Z,1.83
2024-05-09T19:32:00.246Z,1.40
2024-05-09T19:35:03.945Z,1.43
2024-05-09T19:38:07.574Z,1.67
2024-05-09T19:41:11.139Z,1.38
2024-05-09T19:44:14.182Z,1.40
2024-05-09T19:47:18.951Z,1.23
2024-05-09T19:50:31.008Z,1.40
2024-05-09T19:53:41.015Z,1.50
2024-05-09T19:56:45.446Z,1.02
2024-05-09T19:59:48.921Z,1.40
2024-05-09T20:02:52.607Z,1.23
2024-05-09T20:05:55.873Z,1.70
2024-05-09T20:08:59.809Z,1.25
2024-05-09T20:12:03.489Z,1.48
2024-05-09T20:15:07.313Z,1.30
2024-05-09T20:18:11.473Z,1.58
2024-05-09T20:21:14.501Z,2.00
2024-05-09T20:24:18.229Z,1.50
2024-05-09T20:27:21.749Z,1.50
2024-05-09T20:30:31.368Z,1.50
2024-05-09T20:33:37.968Z,1.80
2024-05-09T20:36:41.512Z,1.53
2024-05-09T20:39:45.130Z,1.90
2024-05-09T20:42:48.661Z,2.10
2024-05-09T20:45:51.605Z,1.73
2024-05-09T20:48:56.478Z,2.00
2024-05-09T20:52:01.156Z,2.57
2024-05-09T20:55:05.973Z,1.85
2024-05-09T20:58:10.515Z,2.22
2024-05-09T21:01:14.433Z,2.40
2024-05-09T21:04:19.264Z,1.88
2024-05-09T21:07:22.241Z,2.00
2024-05-09T21:10:27.242Z,1.80
2024-05-09T21:13:32.623Z,1.77
2024-05-09T21:16:35.765Z,2.30
2024-05-09T21:19:39.278Z,2.00
2024-05-09T21:22:44.067Z,2.10
2024-05-09T21:25:48.492Z,2.38
2024-05-09T21:28:52.364Z,2.10
2024-05-09T21:31:56.964Z,2.28
2024-05-09T21:35:00.411Z,2.35
2024-05-09T21:38:04.706Z,2.27
2024-05-09T21:41:10.164Z,2.10
2024-05-09T21:44:13.005Z,2.75
2024-05-09T21:47:17.431Z,2.35
2024-05-09T21:50:27.549Z,2.25
2024-05-09T21:53:37.249Z,2.10
2024-05-09T21:56:42.275Z,2.40
2024-05-09T21:59:46.189Z,2.33
2024-05-09T22:02:49.182Z,2.55
2024-05-09T22:05:52.173Z,2.67
2024-05-09T22:08:55.618Z,2.40
2024-05-09T22:11:59.093Z,2.28
2024-05-09T22:15:02.073Z,2.75
2024-05-09T22:18:06.586Z,2.47
2024-05-09T22:21:09.745Z,2.50
2024-05-09T22:24:13.231Z,2.73
2024-05-09T22:27:16.708Z,2.00
2024-05-09T22:30:24.048Z,2.08
2024-05-09T22:33:35.533Z,2.38
2024-05-09T22:36:40.047Z,2.63
2024-05-09T22:39:43.617Z,2.20
2024-05-09T22:42:48.147Z,2.90
2024-05-09T22:45:53.173Z,2.40
2024-05-09T22:48:56.874Z,2.50
2024-05-09T22:52:00.874Z,3.13
2024-05-09T22:55:04.856Z,2.00
2024-05-09T22:58:08.372Z,2.50
2024-05-09T23:01:15.518Z,2.25
2024-05-09T23:04:19.124Z,2.60
2024-05-09T23:07:23.045Z,2.35
2024-05-09T23:10:32.494Z,3.03
2024-05-09T23:13:39.931Z,2.85
2024-05-09T23:16:43.612Z,3.00
2024-05-09T23:19:47.531Z,2.90
2024-05-09T23:22:50.592Z,2.57
2024-05-09T23:25:54.485Z,2.43
2024-05-09T23:28:57.990Z,2.47
2024-05-09T23:32:00.931Z,3.03
2024-05-09T23:35:04.829Z,2.80
2024-05-09T23:38:08.391Z,3.05
2024-05-09T23:41:11.879Z,2.83
2024-05-09T23:44:15.370Z,2.20
2024-05-09T23:47:19.898Z,2.53
2024-05-09T23:50:33.067Z,2.90
2024-05-09T23:53:44.487Z,2.75
2024-05-09T23:56:47.400Z,2.30
2024-05-09T23:59:50.791Z,2.88
